createdAt,value
2019-04-11T00:01:12.863Z,12.83
2019-04-11T00:03:45.720Z,12.79
2019-04-11T00:06:17.506Z,12.84
2019-04-11T00:08:49.948Z,12.80
2019-04-11T00:11:21.944Z,12.83
2019-04-11T00:13:53.645Z,12.84
2019-04-11T00:16:25.555Z,12.91
2019-04-11T00:18:57.107Z,12.88
2019-04-11T00:21:28.853Z,12.84
2019-04-11T00:24:00.759Z,12.95
2019-04-11T00:26:32.739Z,12.95
2019-04-11T00:29:04.339Z,12.94
2019-04-11T00:31:36.885Z,12.99
2019-04-11T00:34:10.982Z,12.99
2019-04-11T00:36:42.893Z,13.01
2019-04-11T00:39:15.308Z,13.14
2019-04-11T00:41:48.140Z,13.01
2019-04-11T00:44:19.596Z,13.03
2019-04-11T00:46:50.910Z,12.98
2019-04-11T00:49:22.185Z,12.91
2019-04-11T00:51:54.167Z,12.84
2019-04-11T00:54:26.893Z,13.02
2019-04-11T00:56:58.825Z,12.97
2019-04-11T00:59:30.568Z,13.00
2019-04-11T01:02:02.629Z,12.69
2019-04-11T01:04:34.948Z,12.59
2019-04-11T01:07:06.894Z,12.63
2019-04-11T01:09:38.707Z,12.65
2019-04-11T01:12:10.767Z,12.66
2019-04-11T01:14:42.758Z,12.58
2019-04-11T01:17:14.937Z,12.52
2019-04-11T01:19:46.893Z,12.58
2019-04-11T01:22:18.514Z,12.61
2019-04-11T01:24:50.306Z,12.54
2019-04-11T01:27:21.926Z,12.67
2019-04-11T01:29:53.683Z,12.43
2019-04-11T01:32:25.133Z,12.48
2019-04-11T01:34:57.168Z,12.48
2019-04-11T01:37:28.668Z,12.59
2019-04-11T01:40:01.562Z,12.70
2019-04-11T01:42:33.548Z,12.69
2019-04-11T01:45:07.433Z,12.61
2019-04-11T01:47:43.250Z,12.53
2019-04-11T01:50:16.825Z,12.55
2019-04-11T01:52:48.788Z,12.55
2019-04-11T01:55:20.668Z,12.63
2019-04-11T01:57:52.237Z,12.49
2019-04-11T02:00:34.380Z,12.38
2019-04-11T02:03:07.138Z,12.47
2019-04-11T02:05:38.057Z,12.37
2019-04-11T02:08:11.255Z,12.28
2019-04-11T02:10:41.203Z,12.21
2019-04-11T02:13:12.017Z,12.26
2019-04-11T02:15:42.445Z,12.23
2019-04-11T02:18:13.098Z,12.14
2019-04-11T02:20:43.705Z,12.08
2019-04-11T02:23:17.085Z,12.04
2019-04-11T02:25:52.469Z,12.03
2019-04-11T02:28:23.041Z,12.05
2019-04-11T02:30:56.266Z,12.19
2019-04-11T02:33:27.206Z,12.15
2019-04-11T02:35:58.099Z,12.12
2019-04-11T02:38:30.337Z,12.19
2019-04-11T02:41:03.317Z,12.12
2019-04-11T02:43:34.273Z,12.19
2019-04-11T02:46:16.844Z,12.13
2019-04-11T02:48:37.725Z,12.13
2019-04-11T02:51:09.773Z,12.03
2019-04-11T02:53:41.025Z,12.06
2019-04-11T02:56:12.569Z,12.03
2019-04-11T02:58:44.211Z,12.11
2019-04-11T03:01:15.602Z,12.07
2019-04-11T03:03:47.429Z,12.11
2019-04-11T03:06:19.471Z,12.17
2019-04-11T03:08:51.013Z,12.24
2019-04-11T03:11:23.643Z,12.16
2019-04-11T03:13:54.983Z,12.13
2019-04-11T03:16:39.413Z,12.18
2019-04-11T03:19:12.967Z,12.18
2019-04-11T03:21:32.961Z,12.10
2019-04-11T03:24:06.143Z,12.24
2019-04-11T03:26:36.160Z,12.18
2019-04-11T03:29:10.778Z,12.10
2019-04-11T03:32:17.036Z,12.02
2019-04-11T03:37:25.999Z,12.05
2019-04-11T03:39:37.539Z,11.98
2019-04-11T03:42:03.993Z,11.91
2019-04-11T03:44:30.695Z,11.89
2019-04-11T03:47:12.671Z,11.82
2019-04-11T03:49:39.544Z,11.88
2019-04-11T03:52:03.411Z,11.88
2019-04-11T03:54:36.251Z,12.02
2019-04-11T03:57:07.863Z,11.99
2019-04-11T03:59:40.535Z,11.93
2019-04-11T04:02:13.150Z,11.99
2019-04-11T04:04:45.707Z,12.06
2019-04-11T04:07:16.741Z,12.01
2019-04-11T04:09:48.984Z,12.07
2019-04-11T04:12:20.853Z,12.06
2019-04-11T04:14:55.510Z,12.20
2019-04-11T04:17:41.278Z,12.35
2019-04-11T04:20:30.569Z,12.33
2019-04-11T04:23:05.163Z,12.51
2019-04-11T04:25:36.759Z,12.54
2019-04-11T04:28:09.587Z,12.50
2019-04-11T04:30:41.043Z,12.54
2019-04-11T04:33:12.953Z,12.66
2019-04-11T04:35:44.767Z,12.78
2019-04-11T04:38:15.712Z,12.98
2019-04-11T04:41:00.792Z,12.85
2019-04-11T04:43:20.338Z,12.77
2019-04-11T04:46:08.515Z,12.80
2019-04-11T04:48:26.572Z,12.84
2019-04-11T04:50:57.237Z,12.65
2019-04-11T04:53:28.387Z,12.70
2019-04-11T04:56:02.619Z,12.63
2019-04-11T04:58:33.945Z,12.82
2019-04-11T05:01:07.035Z,12.93
2019-04-11T05:03:37.913Z,13.03
2019-04-11T05:06:10.102Z,12.95
2019-04-11T05:08:40.968Z,12.85
2019-04-11T05:11:11.852Z,12.82
2019-04-11T05:13:45.317Z,13.07
2019-04-11T05:16:17.675Z,12.89
2019-04-11T05:18:48.382Z,12.95
2019-04-11T05:21:19.160Z,12.83
2019-04-11T05:23:50.083Z,12.87
2019-04-11T05:26:22.086Z,12.87
2019-04-11T05:28:52.984Z,13.13
2019-04-11T05:31:24.817Z,12.90
2019-04-11T05:33:56.998Z,12.81
2019-04-11T05:36:30.379Z,13.06
2019-04-11T05:39:04.662Z,13.14
2019-04-11T05:41:35.500Z,13.03
2019-04-11T05:44:10.169Z,13.05
2019-04-11T05:46:49.130Z,13.28
2019-04-11T05:49:14.479Z,13.32
2019-04-11T05:51:47.753Z,13.53
2019-04-11T05:54:20.371Z,13.59
2019-04-11T05:56:56.437Z,13.85
2019-04-11T05:59:27.159Z,13.59
2019-04-11T06:02:04.407Z,13.43
2019-04-11T06:04:36.428Z,13.67
2019-04-11T06:07:10.446Z,13.78
2019-04-11T06:09:44.150Z,13.51
2019-04-11T06:12:33.767Z,13.56
2019-04-11T06:15:08.044Z,13.54
2019-04-11T06:17:40.726Z,13.34
2019-04-11T06:20:15.888Z,13.42
2019-04-11T06:22:50.839Z,13.44
2019-04-11T06:25:27.667Z,13.30
2019-04-11T06:28:02.075Z,13.30
2019-04-11T06:30:53.020Z,13.27
2019-04-11T06:33:26.703Z,13.31
2019-04-11T06:36:11.802Z,13.35
2019-04-11T06:38:59.425Z,13.47
2019-04-11T06:41:32.686Z,13.68
2019-04-11T06:44:12.269Z,13.92
2019-04-11T06:46:56.211Z,13.79
2019-04-11T06:49:28.714Z,14.15
2019-04-11T06:52:04.262Z,14.27
2019-04-11T06:54:47.495Z,14.26
2019-04-11T06:57:23.651Z,14.31
2019-04-11T06:59:54.538Z,14.72
2019-04-11T07:02:27.962Z,15.18
2019-04-11T07:05:00.417Z,15.45
2019-04-11T07:07:34.237Z,14.60
2019-04-11T07:10:06.347Z,14.70
2019-04-11T07:12:42.667Z,15.21
2019-04-11T07:15:15.434Z,15.29
2019-04-11T07:18:07.138Z,15.52
2019-04-11T07:20:45.551Z,15.29
2019-04-11T07:23:34.118Z,14.63
2019-04-11T07:26:13.553Z,15.42
2019-04-11T07:28:46.059Z,15.28
2019-04-11T07:31:21.757Z,15.13
2019-04-11T07:34:12.514Z,15.30
2019-04-11T07:37:02.812Z,15.54
2019-04-11T07:39:53.870Z,14.73
2019-04-11T07:42:43.476Z,14.70
2019-04-11T07:45:32.225Z,15.02
2019-04-11T07:48:08.823Z,14.80
2019-04-11T07:50:40.392Z,15.10
2019-04-11T07:53:13.906Z,15.26
2019-04-11T07:55:46.518Z,15.40
2019-04-11T07:58:21.737Z,14.98
2019-04-11T08:01:08.874Z,15.02
2019-04-11T08:03:41.450Z,15.02
2019-04-11T08:06:13.794Z,15.45
2019-04-11T08:08:51.923Z,15.57
2019-04-11T08:11:27.536Z,15.58
2019-04-11T08:14:00.035Z,15.77
2019-04-11T08:16:42.614Z,15.71
2019-04-11T08:19:31.124Z,16.21
2019-04-11T08:22:20.936Z,15.77
2019-04-11T08:24:56.592Z,16.17
2019-04-11T08:27:28.907Z,16.32
2019-04-11T08:30:00.977Z,16.04
2019-04-11T08:32:51.967Z,15.89
2019-04-11T08:35:36.595Z,15.78
2019-04-11T08:38:12.388Z,16.77
2019-04-11T08:41:01.464Z,16.63
2019-04-11T08:43:35.221Z,16.92
2019-04-11T08:46:20.555Z,16.41
2019-04-11T08:49:01.708Z,17.04
2019-04-11T08:51:33.690Z,16.53
2019-04-11T08:54:13.288Z,17.08
2019-04-11T08:56:45.361Z,17.53
2019-04-11T08:59:38.026Z,18.04
2019-04-11T09:02:08.945Z,18.48
2019-04-11T09:05:04.843Z,18.21
2019-04-11T09:07:43.565Z,17.57
2019-04-11T09:10:33.707Z,17.91
2019-04-11T09:13:06.966Z,18.49
2019-04-11T09:15:57.182Z,18.23
2019-04-11T09:18:30.883Z,17.57
2019-04-11T09:21:09.796Z,18.14
2019-04-11T09:23:40.333Z,17.58
2019-04-11T09:26:18.646Z,17.62
2019-04-11T09:28:49.587Z,18.10
2019-04-11T09:31:34.348Z,17.79
2019-04-11T09:34:13.277Z,18.20
2019-04-11T09:37:00.975Z,18.51
2019-04-11T09:39:37.264Z,18.76
2019-04-11T09:42:11.666Z,19.04
2019-04-11T09:44:49.866Z,18.88
2019-04-11T09:47:38.362Z,18.15
2019-04-11T09:50:26.650Z,18.75
2019-04-11T09:52:59.081Z,18.82
2019-04-11T09:55:43.755Z,19.02
2019-04-11T09:58:28.582Z,18.64
2019-04-11T10:01:18.189Z,18.02
2019-04-11T10:03:50.785Z,17.97
2019-04-11T10:06:30.154Z,18.25
2019-04-11T10:09:01.827Z,18.93
2019-04-11T10:11:35.834Z,19.15
2019-04-11T10:14:11.277Z,19.26
2019-04-11T10:16:44.343Z,19.39
2019-04-11T10:19:17.679Z,19.17
2019-04-11T10:21:50.030Z,18.82
2019-04-11T10:24:32.550Z,19.21
2019-04-11T10:27:16.997Z,19.11
2019-04-11T10:30:06.980Z,19.10
2019-04-11T10:32:41.327Z,18.96
2019-04-11T10:35:30.889Z,19.14
2019-04-11T10:38:02.528Z,18.25
2019-04-11T10:40:46.844Z,18.56
2019-04-11T10:43:18.807Z,18.70
2019-04-11T10:46:09.337Z,18.23
2019-04-11T10:48:50.470Z,18.76
2019-04-11T10:51:35.858Z,19.12
2019-04-11T10:54:07.400Z,18.74
2019-04-11T10:56:41.232Z,19.03
2019-04-11T10:59:13.406Z,19.30
2019-04-11T11:01:58.215Z,18.90
2019-04-11T11:04:41.014Z,18.90
2019-04-11T11:07:13.093Z,19.16
2019-04-11T11:09:48.326Z,19.15
2019-04-11T11:12:21.108Z,18.71
2019-04-11T11:15:11.523Z,18.08
2019-04-11T11:18:31.887Z,18.34
2019-04-11T11:20:48.366Z,18.29
2019-04-11T11:23:31.108Z,18.68
2019-04-11T11:26:07.015Z,18.93
2019-04-11T11:28:45.248Z,19.23
2019-04-11T11:31:32.944Z,19.42
2019-04-11T11:34:05.144Z,18.94
2019-04-11T11:36:39.942Z,18.33
2019-04-11T11:39:27.504Z,18.44
2019-04-11T11:42:17.844Z,18.22
2019-04-11T11:44:53.262Z,18.56
2019-04-11T11:47:39.874Z,18.76
2019-04-11T11:50:23.271Z,19.14
2019-04-11T11:53:14.722Z,19.16
2019-04-11T11:55:45.495Z,19.36
2019-04-11T11:58:19.569Z,19.33
2019-04-11T12:00:53.886Z,19.33
2019-04-11T12:03:42.443Z,19.43
2019-04-11T12:06:14.732Z,19.85
2019-04-11T12:09:04.458Z,19.78
2019-04-11T12:11:38.053Z,19.73
2019-04-11T12:14:27.585Z,19.14
2019-04-11T12:17:03.513Z,19.39
2019-04-11T12:19:52.936Z,19.30
2019-04-11T12:22:18.669Z,19.34
2019-04-11T12:24:53.512Z,19.12
2019-04-11T12:27:26.707Z,19.42
2019-04-11T12:29:59.707Z,19.47
2019-04-11T12:32:36.824Z,19.20
2019-04-11T12:35:11.608Z,19.51
2019-04-11T12:37:43.387Z,19.54
2019-04-11T12:40:33.228Z,19.45
2019-04-11T12:43:05.703Z,19.60
2019-04-11T12:45:54.353Z,19.48
2019-04-11T12:48:26.928Z,19.55
2019-04-11T12:51:03.090Z,19.53
2019-04-11T12:53:33.894Z,19.35
2019-04-11T12:56:06.165Z,19.29
2019-04-11T12:58:38.599Z,19.52
2019-04-11T13:01:25.379Z,19.34
2019-04-11T13:03:59.108Z,19.34
2019-04-11T13:06:35.642Z,19.43
2019-04-11T13:09:14.782Z,19.59
2019-04-11T13:11:53.268Z,19.63
2019-04-11T13:14:26.589Z,19.46
2019-04-11T13:17:01.622Z,19.23
2019-04-11T13:19:33.686Z,19.35
2019-04-11T13:22:06.366Z,19.49
2019-04-11T13:24:56.862Z,19.20
2019-04-11T13:27:28.619Z,19.23
2019-04-11T13:30:03.451Z,19.04
2019-04-11T13:32:51.589Z,18.99
2019-04-11T13:35:35.847Z,19.06
2019-04-11T13:38:11.597Z,18.93
2019-04-11T13:40:46.727Z,18.75
2019-04-11T13:43:25.038Z,18.68
2019-04-11T13:46:03.347Z,18.87
2019-04-11T13:48:35.699Z,19.02
2019-04-11T13:51:07.990Z,19.08
2019-04-11T13:53:43.228Z,19.15
2019-04-11T13:56:13.962Z,19.25
2019-04-11T13:58:52.124Z,19.11
2019-04-11T14:01:24.607Z,19.23
2019-04-11T14:04:08.915Z,19.13
2019-04-11T14:06:39.671Z,19.06
2019-04-11T14:09:19.267Z,18.99
2019-04-11T14:11:50.184Z,18.97
2019-04-11T14:14:22.577Z,18.95
2019-04-11T14:16:54.739Z,19.16
2019-04-11T14:19:35.822Z,19.02
2019-04-11T14:22:08.410Z,18.98
2019-04-11T14:24:42.334Z,18.86
2019-04-11T14:27:17.244Z,19.17
2019-04-11T14:29:58.626Z,19.05
2019-04-11T14:32:31.402Z,18.78
2019-04-11T14:35:21.390Z,18.73
2019-04-11T14:37:53.769Z,18.75
2019-04-11T14:40:44.371Z,18.79
2019-04-11T14:43:22.875Z,18.79
2019-04-11T14:45:56.171Z,18.69
2019-04-11T14:48:45.864Z,18.73
2019-04-11T14:51:18.521Z,18.58
2019-04-11T14:54:07.890Z,18.61
2019-04-11T14:56:56.545Z,18.61
2019-04-11T14:59:30.042Z,18.59
2019-04-11T15:02:03.458Z,18.48
2019-04-11T15:04:43.964Z,18.47
2019-04-11T15:07:18.206Z,18.42
2019-04-11T15:09:50.494Z,18.36
2019-04-11T15:12:22.865Z,18.40
2019-04-11T15:14:58.510Z,18.37
2019-04-11T15:17:31.810Z,18.37
2019-04-11T15:20:05.792Z,18.40
2019-04-11T15:22:44.017Z,18.50
2019-04-11T15:25:24.955Z,18.41
2019-04-11T15:28:07.981Z,18.27
2019-04-11T15:30:43.538Z,18.19
2019-04-11T15:33:32.724Z,18.11
2019-04-11T15:36:08.165Z,18.24
2019-04-11T15:38:40.647Z,18.15
2019-04-11T15:41:12.301Z,18.09
2019-04-11T15:44:00.230Z,18.05
2019-04-11T15:46:32.715Z,18.00
2019-04-11T15:49:19.633Z,17.79
2019-04-11T15:51:41.855Z,17.60
2019-04-11T15:54:14.367Z,17.55
2019-04-11T15:57:04.692Z,17.51
2019-04-11T15:59:43.716Z,17.38
2019-04-11T16:02:16.940Z,17.27
2019-04-11T16:04:49.218Z,17.16
2019-04-11T16:07:38.304Z,17.09
2019-04-11T16:10:11.896Z,17.03
2019-04-11T16:12:56.634Z,17.02
2019-04-11T16:15:35.455Z,16.97
2019-04-11T16:18:08.037Z,16.94
2019-04-11T16:20:38.889Z,16.95
2019-04-11T16:23:14.109Z,16.80
2019-04-11T16:25:46.484Z,16.69
2019-04-11T16:28:21.513Z,16.56
2019-04-11T16:30:53.893Z,16.47
2019-04-11T16:33:29.238Z,16.43
2019-04-11T16:36:20.003Z,16.52
2019-04-11T16:38:58.247Z,16.67
2019-04-11T16:41:46.896Z,16.38
2019-04-11T16:44:37.796Z,16.31
2019-04-11T16:47:26.967Z,16.26
2019-04-11T16:49:57.797Z,16.19
2019-04-11T16:52:28.929Z,16.08
2019-04-11T16:54:59.473Z,15.98
2019-04-11T16:57:30.199Z,15.93
2019-04-11T17:00:00.835Z,15.84
2019-04-11T17:02:32.643Z,15.78
2019-04-11T17:05:03.631Z,15.70
2019-04-11T17:07:35.901Z,15.65
2019-04-11T17:10:08.138Z,15.54
2019-04-11T17:12:38.954Z,15.45
2019-04-11T17:15:09.633Z,15.43
2019-04-11T17:17:40.676Z,15.36
2019-04-11T17:20:11.205Z,15.29
2019-04-11T17:22:42.142Z,15.25
2019-04-11T17:25:12.772Z,15.22
2019-04-11T17:27:43.404Z,15.15
2019-04-11T17:30:15.100Z,15.15
2019-04-11T17:32:46.103Z,15.09
2019-04-11T17:35:17.055Z,15.03
2019-04-11T17:37:47.871Z,15.03
2019-04-11T17:40:18.710Z,15.01
2019-04-11T17:42:49.417Z,14.98
2019-04-11T17:45:20.380Z,14.99
2019-04-11T17:47:51.116Z,15.06
2019-04-11T17:50:21.653Z,15.10
2019-04-11T17:52:54.719Z,15.07
2019-04-11T17:55:25.976Z,15.00
2019-04-11T17:57:58.396Z,14.96
2019-04-11T18:00:32.954Z,14.90
2019-04-11T18:03:03.924Z,14.87
2019-04-11T18:05:34.741Z,14.79
2019-04-11T18:08:05.354Z,14.75
2019-04-11T18:10:36.184Z,14.69
2019-04-11T18:13:06.942Z,14.69
2019-04-11T18:15:37.476Z,14.67
2019-04-11T18:18:08.214Z,14.74
2019-04-11T18:20:38.938Z,14.67
2019-04-11T18:23:09.754Z,14.79
2019-04-11T18:25:40.408Z,14.70
2019-04-11T18:28:11.037Z,14.76
2019-04-11T18:30:42.792Z,14.63
2019-04-11T18:33:13.526Z,14.55
2019-04-11T18:35:44.053Z,14.48
2019-04-11T18:38:18.556Z,14.46
2019-04-11T18:40:49.528Z,14.46
2019-04-11T18:43:19.948Z,14.46
2019-04-11T18:45:50.879Z,14.46
2019-04-11T18:48:23.565Z,14.44
2019-04-11T18:50:54.602Z,14.44
2019-04-11T18:53:25.639Z,14.48
2019-04-11T18:55:56.370Z,14.51
2019-04-11T18:58:26.900Z,14.53
2019-04-11T19:00:57.847Z,14.57
2019-04-11T19:03:36.074Z,14.52
2019-04-11T19:06:01.352Z,14.50
2019-04-11T19:08:32.116Z,14.44
2019-04-11T19:11:02.901Z,14.40
2019-04-11T19:13:33.736Z,14.38
2019-04-11T19:16:04.387Z,14.36
2019-04-11T19:18:35.220Z,14.39
2019-04-11T19:21:06.138Z,14.31
2019-04-11T19:23:39.069Z,14.35
2019-04-11T19:26:09.441Z,14.29
2019-04-11T19:28:41.860Z,14.25
2019-04-11T19:31:12.983Z,14.23
2019-04-11T19:33:43.821Z,14.17
2019-04-11T19:36:14.547Z,14.20
2019-04-11T19:38:45.491Z,14.15
2019-04-11T19:41:18.021Z,14.12
2019-04-11T19:43:49.197Z,14.09
2019-04-11T19:46:21.030Z,14.09
2019-04-11T19:48:55.337Z,14.03
2019-04-11T19:51:24.497Z,13.97
2019-04-11T19:53:55.317Z,13.92
2019-04-11T19:56:30.555Z,13.86
2019-04-11T19:59:00.987Z,13.83
2019-04-11T20:01:32.022Z,13.74
2019-04-11T20:04:02.771Z,13.77
2019-04-11T20:06:37.379Z,13.66
2019-04-11T20:09:10.476Z,13.64
2019-04-11T20:11:41.304Z,13.62
2019-04-11T20:14:11.934Z,13.52
2019-04-11T20:16:47.642Z,13.49
2019-04-11T20:19:14.815Z,13.58
2019-04-11T20:21:45.640Z,13.49
2019-04-11T20:24:17.345Z,13.42
2019-04-11T20:26:50.181Z,13.26
2019-04-11T20:29:21.357Z,13.16
2019-04-11T20:31:52.908Z,12.98
2019-04-11T20:34:27.707Z,13.02
2019-04-11T20:36:55.906Z,12.89
2019-04-11T20:39:26.640Z,12.81
2019-04-11T20:41:57.165Z,12.99
2019-04-11T20:44:28.206Z,12.83
2019-04-11T20:47:00.414Z,12.78
2019-04-11T20:49:34.432Z,12.64
2019-04-11T20:52:05.323Z,12.53
2019-04-11T20:54:36.041Z,12.70
2019-04-11T20:57:11.914Z,12.59
2019-04-11T20:59:42.245Z,12.52
2019-04-11T21:02:14.812Z,12.44
2019-04-11T21:04:45.849Z,12.39
2019-04-11T21:07:16.684Z,12.62
2019-04-11T21:09:47.419Z,12.60
2019-04-11T21:12:18.458Z,12.50
2019-04-11T21:14:49.097Z,12.38
2019-04-11T21:17:19.730Z,12.20
2019-04-11T21:19:51.016Z,12.27
2019-04-11T21:22:24.207Z,12.27
2019-04-11T21:24:54.794Z,12.39
2019-04-11T21:27:28.582Z,12.39
2019-04-11T21:29:59.988Z,12.12
2019-04-11T21:32:31.915Z,12.08
2019-04-11T21:35:03.082Z,12.15
2019-04-11T21:37:36.573Z,12.14
2019-04-11T21:40:07.693Z,11.83
2019-04-11T21:42:38.530Z,11.86
2019-04-11T21:45:09.672Z,11.78
2019-04-11T21:47:40.815Z,11.75
2019-04-11T21:50:11.547Z,11.78
2019-04-11T21:52:43.698Z,11.58
2019-04-11T21:55:16.001Z,11.56
2019-04-11T21:57:48.803Z,11.54
2019-04-11T22:00:22.599Z,11.68
2019-04-11T22:02:55.128Z,11.70
2019-04-11T22:05:28.893Z,11.49
2019-04-11T22:08:00.934Z,11.50
2019-04-11T22:10:31.542Z,11.51
2019-04-11T22:13:02.177Z,11.63
2019-04-11T22:15:32.804Z,11.35
2019-04-11T22:18:03.647Z,11.33
2019-04-11T22:20:35.812Z,11.33
2019-04-11T22:23:06.849Z,11.42
2019-04-11T22:25:37.272Z,11.36
2019-04-11T22:28:07.905Z,11.45
2019-04-11T22:30:38.331Z,11.30
2019-04-11T22:33:10.586Z,11.22
2019-04-11T22:35:42.151Z,11.16
2019-04-11T22:38:12.885Z,11.25
2019-04-11T22:40:43.722Z,11.30
2019-04-11T22:43:24.153Z,11.45
2019-04-11T22:45:46.825Z,11.46
2019-04-11T22:48:17.464Z,11.55
2019-04-11T22:50:49.015Z,11.58
2019-04-11T22:53:20.140Z,11.70
2019-04-11T22:55:50.785Z,11.73
2019-04-11T22:58:21.415Z,11.70
2019-04-11T23:00:52.114Z,11.67
2019-04-11T23:03:24.415Z,11.62
2019-04-11T23:05:55.457Z,11.59
2019-04-11T23:08:26.092Z,11.61
2019-04-11T23:10:56.823Z,11.55
2019-04-11T23:13:27.555Z,11.64
2019-04-11T23:15:58.184Z,11.48
2019-04-11T23:18:28.819Z,11.47
2019-04-11T23:20:59.547Z,11.47
2019-04-11T23:23:30.070Z,11.48
2019-04-11T23:26:00.700Z,11.48
2019-04-11T23:28:31.126Z,11.54
2019-04-11T23:31:01.861Z,11.58
2019-04-11T23:33:32.186Z,11.55
2019-04-11T23:36:02.715Z,11.70
2019-04-11T23:38:33.246Z,11.66
2019-04-11T23:41:05.408Z,11.52
2019-04-11T23:43:35.936Z,11.55
2019-04-11T23:46:06.569Z,11.46
2019-04-11T23:48:36.991Z,11.50
2019-04-11T23:51:07.947Z,11.45
2019-04-11T23:53:39.176Z,11.32
2019-04-11T23:56:10.014Z,11.28
2019-04-11T23:58:40.541Z,11.15
